Ville Platte, Louisiana
Current Conditions -  °F | °C
As of 11:55 AM on Wednesday 28 Jan 2015 (Local Time) from KOPL Reporting Station
Clear Clear  
Wind Chill: 65°   Ceiling: Unl
Heat Index: 65°   Visibility: 10mi
Dew Point: 41°   Wind: 7mph
Humidity: 41%   Direction: 120°ESE
Pressure: 30.25"   Gusts: NA
Location:  30.69°N, 92.28°W
Report Text: KOPL 281755Z AUTO 12006KT 10SM CLR 18/05 A3025 RMK AO2 T01840050 10184 20039
Loading
Personal Weather Stations






























Interactive Weather Map New forecast layout! Learn more

10-Day Weather Forecast

Advertisements
Track Severe Weather on mobile